createdAt,value
2019-03-28T00:00:08.862Z,19.22
2019-03-28T00:01:08.867Z,19.22
2019-03-28T00:02:08.878Z,19.21
2019-03-28T00:03:08.965Z,19.21
2019-03-28T00:04:08.605Z,19.21
2019-03-28T00:05:08.641Z,19.21
2019-03-28T00:06:08.794Z,19.2
2019-03-28T00:07:08.647Z,19.2
2019-03-28T00:08:08.719Z,19.2
2019-03-28T00:09:08.688Z,19.2
2019-03-28T00:10:08.721Z,19.19
2019-03-28T00:11:08.690Z,19.18
2019-03-28T00:12:08.725Z,19.18
2019-03-28T00:13:08.735Z,19.17
2019-03-28T00:14:09.318Z,19.17
2019-03-28T00:15:08.913Z,19.17
2019-03-28T00:16:08.789Z,19.17
2019-03-28T00:17:08.804Z,19.15
2019-03-28T00:18:08.833Z,19.15
2019-03-28T00:19:08.807Z,19.15
2019-03-28T00:20:08.846Z,19.14
2019-03-28T00:21:08.631Z,19.14
2019-03-28T00:22:08.725Z,19.14
2019-03-28T00:23:08.727Z,19.13
2019-03-28T00:24:08.673Z,19.12
2019-03-28T00:25:08.793Z,19.12
2019-03-28T00:26:08.733Z,19.11
2019-03-28T00:27:08.717Z,19.11
2019-03-28T00:28:08.851Z,19.09
2019-03-28T00:29:08.758Z,19.09
2019-03-28T00:30:08.879Z,19.09
2019-03-28T00:31:09.456Z,19.08
2019-03-28T00:32:08.795Z,19.08
2019-03-28T00:33:08.797Z,19.07
2019-03-28T00:34:08.816Z,19.08
2019-03-28T00:35:08.966Z,19.07
2019-03-28T00:36:08.950Z,19.08
2019-03-28T00:37:09.106Z,19.07
2019-03-28T00:38:08.758Z,19.06
2019-03-28T00:39:08.603Z,19.06
2019-03-28T00:40:08.609Z,19.06
2019-03-28T00:41:08.665Z,19.06
2019-03-28T00:42:08.670Z,19.05
2019-03-28T00:43:08.723Z,19.05
2019-03-28T00:44:08.768Z,19.04
2019-03-28T00:45:08.681Z,19.04
2019-03-28T00:46:08.691Z,19.02
2019-03-28T00:47:08.869Z,19.03
2019-03-28T00:48:08.737Z,19.03
2019-03-28T00:49:08.797Z,19.02
2019-03-28T00:50:08.789Z,19.01
2019-03-28T00:51:08.845Z,19.02
2019-03-28T00:52:08.792Z,19.01
2019-03-28T00:53:08.798Z,19.01
2019-03-28T00:54:08.857Z,19.01
2019-03-28T00:55:08.617Z,19.01
2019-03-28T00:56:08.676Z,19
2019-03-28T00:57:08.694Z,19
2019-03-28T00:58:09.067Z,19
2019-03-28T00:59:08.590Z,18.99
2019-03-28T01:00:08.768Z,18.99
2019-03-28T01:01:08.784Z,18.98
2019-03-28T01:02:08.733Z,18.99
2019-03-28T01:03:08.734Z,18.98
2019-03-28T01:04:08.752Z,18.97
2019-03-28T01:05:08.749Z,18.97
2019-03-28T01:06:08.791Z,18.96
2019-03-28T01:07:08.885Z,18.95
2019-03-28T01:08:08.892Z,18.96
2019-03-28T01:09:08.823Z,18.95
2019-03-28T01:10:08.838Z,18.94
2019-03-28T01:11:08.854Z,18.94
2019-03-28T01:12:08.880Z,18.94
2019-03-28T01:13:08.588Z,18.95
2019-03-28T01:14:08.593Z,18.94
2019-03-28T01:15:08.596Z,18.94
2019-03-28T01:16:08.629Z,18.93
2019-03-28T01:17:08.702Z,18.93
2019-03-28T01:18:08.712Z,18.92
2019-03-28T01:19:08.830Z,18.92
2019-03-28T01:20:08.698Z,18.91
2019-03-28T01:21:08.724Z,18.91
2019-03-28T01:22:08.896Z,18.91
2019-03-28T01:23:08.762Z,18.9
2019-03-28T01:24:08.728Z,18.9
2019-03-28T01:25:08.814Z,18.9
2019-03-28T01:26:08.524Z,18.89
2019-03-28T01:27:08.964Z,18.89
2019-03-28T01:28:08.843Z,18.89
2019-03-28T01:29:08.809Z,18.89
2019-03-28T01:30:08.955Z,18.88
2019-03-28T01:31:08.625Z,18.88
2019-03-28T01:32:08.633Z,18.87
2019-03-28T01:33:08.764Z,18.87
2019-03-28T01:34:08.670Z,18.87
2019-03-28T01:35:08.812Z,18.87
2019-03-28T01:36:08.822Z,18.87
2019-03-28T01:37:08.765Z,18.87
2019-03-28T01:38:08.818Z,18.86
2019-03-28T01:39:08.815Z,18.85
2019-03-28T01:40:08.854Z,18.86
2019-03-28T01:41:08.882Z,18.85
2019-03-28T01:42:08.833Z,18.84
2019-03-28T01:43:08.809Z,18.85
2019-03-28T01:44:08.895Z,18.84
2019-03-28T01:45:08.870Z,18.84
2019-03-28T01:46:08.841Z,18.84
2019-03-28T01:47:08.602Z,18.84
2019-03-28T01:48:08.690Z,18.83
2019-03-28T01:49:08.642Z,18.83
2019-03-28T01:50:08.667Z,18.83
2019-03-28T01:51:08.688Z,18.82
2019-03-28T01:52:08.646Z,18.82
2019-03-28T01:53:08.408Z,18.81
2019-03-28T01:54:08.725Z,18.81
2019-03-28T01:55:08.763Z,18.81
2019-03-28T01:56:08.890Z,18.81
2019-03-28T01:57:11.064Z,18.8
2019-03-28T01:58:08.791Z,18.8
2019-03-28T01:59:08.479Z,18.79
2019-03-28T02:00:08.759Z,18.79
2019-03-28T02:01:09.129Z,18.79
2019-03-28T02:02:09.034Z,18.77
2019-03-28T02:03:08.779Z,18.78
2019-03-28T02:04:08.836Z,18.77
2019-03-28T02:05:08.593Z,18.76
2019-03-28T02:06:09.198Z,18.77
2019-03-28T02:07:08.652Z,18.76
2019-03-28T02:08:08.713Z,18.76
2019-03-28T02:09:08.705Z,18.76
2019-03-28T02:10:08.919Z,18.75
2019-03-28T02:11:08.671Z,18.75
2019-03-28T02:12:08.811Z,18.74
2019-03-28T02:13:08.739Z,18.74
2019-03-28T02:14:08.768Z,18.74
2019-03-28T02:15:08.738Z,18.73
2019-03-28T02:16:08.824Z,18.73
2019-03-28T02:17:08.831Z,18.73
2019-03-28T02:18:08.781Z,18.73
2019-03-28T02:19:08.781Z,18.72
2019-03-28T02:20:08.809Z,18.72
2019-03-28T02:21:09.657Z,18.71
2019-03-28T02:22:08.915Z,18.71
2019-03-28T02:23:08.307Z,18.71
2019-03-28T02:24:08.293Z,18.71
2019-03-28T02:25:08.700Z,18.72
2019-03-28T02:26:09.164Z,18.71
2019-03-28T02:27:08.660Z,18.7
2019-03-28T02:28:08.614Z,18.71
2019-03-28T02:29:08.639Z,18.7
2019-03-28T02:30:08.663Z,18.69
2019-03-28T02:31:08.684Z,18.69
2019-03-28T02:32:08.709Z,18.69
2019-03-28T02:33:08.683Z,18.69
2019-03-28T02:34:08.760Z,18.67
2019-03-28T02:35:08.721Z,18.68
2019-03-28T02:36:08.748Z,18.68
2019-03-28T02:37:08.523Z,18.68
2019-03-28T02:38:08.764Z,18.68
2019-03-28T02:39:08.969Z,18.67
2019-03-28T02:40:08.669Z,18.66
2019-03-28T02:41:08.809Z,18.67
2019-03-28T02:42:08.657Z,18.67
2019-03-28T02:43:08.546Z,18.65
2019-03-28T02:44:08.909Z,18.65
2019-03-28T02:45:09.060Z,18.65
2019-03-28T02:46:08.647Z,18.65
2019-03-28T02:47:08.767Z,18.65
2019-03-28T02:48:08.685Z,18.64
2019-03-28T02:49:08.732Z,18.64
2019-03-28T02:50:08.853Z,18.64
2019-03-28T02:51:08.809Z,18.63
2019-03-28T02:52:08.806Z,18.64
2019-03-28T02:53:08.855Z,18.64
2019-03-28T02:54:08.819Z,18.63
2019-03-28T02:55:08.818Z,18.63
2019-03-28T02:56:08.819Z,18.63
2019-03-28T02:57:08.900Z,18.62
2019-03-28T02:58:08.919Z,18.62
2019-03-28T02:59:08.532Z,18.61
2019-03-28T03:00:08.633Z,18.62
2019-03-28T03:01:08.604Z,18.6
2019-03-28T03:02:08.712Z,18.59
2019-03-28T03:03:08.580Z,18.6
2019-03-28T03:04:08.786Z,18.6
2019-03-28T03:05:09.018Z,18.6
2019-03-28T03:06:08.670Z,18.59
2019-03-28T03:07:08.652Z,18.58
2019-03-28T03:08:08.700Z,18.58
2019-03-28T03:09:08.691Z,18.58
2019-03-28T03:10:08.787Z,18.57
2019-03-28T03:11:09.524Z,18.57
2019-03-28T03:12:08.774Z,18.57
2019-03-28T03:13:08.911Z,18.57
2019-03-28T03:14:08.785Z,18.57
2019-03-28T03:15:08.751Z,18.57
2019-03-28T03:16:08.598Z,18.56
2019-03-28T03:17:08.570Z,18.57
2019-03-28T03:18:08.620Z,18.56
2019-03-28T03:19:08.648Z,18.56
2019-03-28T03:20:08.610Z,18.56
2019-03-28T03:21:09.823Z,18.56
2019-03-28T03:22:08.767Z,18.55
2019-03-28T03:23:08.684Z,18.56
2019-03-28T03:24:08.730Z,18.55
2019-03-28T03:25:08.720Z,18.55
2019-03-28T03:26:08.734Z,18.56
2019-03-28T03:27:09.464Z,18.55
2019-03-28T03:28:08.770Z,18.54
2019-03-28T03:29:08.753Z,18.54
2019-03-28T03:30:08.857Z,18.54
2019-03-28T03:31:08.900Z,18.53
2019-03-28T03:32:08.821Z,18.53
2019-03-28T03:33:09.467Z,18.53
2019-03-28T03:34:08.570Z,18.52
2019-03-28T03:35:08.688Z,18.52
2019-03-28T03:36:08.544Z,18.53
2019-03-28T03:37:08.606Z,18.52
2019-03-28T03:38:08.642Z,18.52
2019-03-28T03:39:08.706Z,18.52
2019-03-28T03:40:08.600Z,18.51
2019-03-28T03:41:08.636Z,18.51
2019-03-28T03:42:08.794Z,18.51
2019-03-28T03:43:08.644Z,18.51
2019-03-28T03:44:08.691Z,18.51
2019-03-28T03:45:09.259Z,18.5
2019-03-28T03:46:08.700Z,18.49
2019-03-28T03:47:08.722Z,18.5
2019-03-28T03:48:08.887Z,18.5
2019-03-28T03:49:08.977Z,18.49
2019-03-28T03:50:09.880Z,18.48
2019-03-28T03:51:08.551Z,18.49
2019-03-28T03:52:08.518Z,18.48
2019-03-28T03:53:08.619Z,18.46
2019-03-28T03:54:08.636Z,18.47
2019-03-28T03:55:08.609Z,18.47
2019-03-28T03:56:08.769Z,18.46
2019-03-28T03:57:08.733Z,18.45
2019-03-28T03:58:15.846Z,18.45
2019-03-28T03:59:08.671Z,18.45
2019-03-28T04:00:08.680Z,18.45
2019-03-28T04:01:08.724Z,18.45
2019-03-28T04:02:08.857Z,18.45
2019-03-28T04:03:08.823Z,18.44
2019-03-28T04:04:08.734Z,18.44
2019-03-28T04:05:08.805Z,18.44
2019-03-28T04:06:08.806Z,18.44
2019-03-28T04:07:08.516Z,18.44
2019-03-28T04:08:08.511Z,18.43
2019-03-28T04:09:08.551Z,18.44
2019-03-28T04:10:09.564Z,18.43
2019-03-28T04:11:08.640Z,18.43
2019-03-28T04:12:08.325Z,18.43
2019-03-28T04:13:08.600Z,18.42
2019-03-28T04:14:08.647Z,18.42
2019-03-28T04:15:08.605Z,18.42
2019-03-28T04:16:08.708Z,18.42
2019-03-28T04:17:08.750Z,18.42
2019-03-28T04:18:08.715Z,18.41
2019-03-28T04:19:08.697Z,18.41
2019-03-28T04:20:08.740Z,18.41
2019-03-28T04:21:08.722Z,18.41
2019-03-28T04:22:09.916Z,18.4
2019-03-28T04:23:08.551Z,18.41
2019-03-28T04:24:08.626Z,18.41
2019-03-28T04:25:08.679Z,18.39
2019-03-28T04:26:08.585Z,18.4
2019-03-28T04:27:08.628Z,18.4
2019-03-28T04:28:08.690Z,18.4
2019-03-28T04:29:08.695Z,18.4
2019-03-28T04:30:08.653Z,18.39
2019-03-28T04:31:08.904Z,18.38
2019-03-28T04:32:08.673Z,18.39
2019-03-28T04:33:08.684Z,18.39
2019-03-28T04:34:09.467Z,18.38
2019-03-28T04:35:08.848Z,18.37
2019-03-28T04:36:08.782Z,18.37
2019-03-28T04:37:08.755Z,18.38
2019-03-28T04:38:08.785Z,18.4
2019-03-28T04:39:08.831Z,18.39
2019-03-28T04:40:08.945Z,18.39
2019-03-28T04:41:08.584Z,18.39
2019-03-28T04:42:08.538Z,18.39
2019-03-28T04:43:08.572Z,18.41
2019-03-28T04:44:08.607Z,18.41
2019-03-28T04:45:08.742Z,18.41
2019-03-28T04:46:08.649Z,18.41
2019-03-28T04:47:08.634Z,18.42
2019-03-28T04:48:08.582Z,18.43
2019-03-28T04:49:08.740Z,18.43
2019-03-28T04:50:08.677Z,18.45
2019-03-28T04:51:11.579Z,18.46
2019-03-28T04:52:08.691Z,18.47
2019-03-28T04:53:08.720Z,18.48
2019-03-28T04:54:09.912Z,18.49
2019-03-28T04:55:08.776Z,18.51
2019-03-28T04:56:08.858Z,18.51
2019-03-28T04:57:08.588Z,18.54
2019-03-28T04:58:08.565Z,18.54
2019-03-28T04:59:08.566Z,18.57
2019-03-28T05:00:08.615Z,18.58
2019-03-28T05:01:08.634Z,18.59
2019-03-28T05:02:08.646Z,18.61
2019-03-28T05:03:08.668Z,18.63
2019-03-28T05:04:08.657Z,18.64
2019-03-28T05:05:08.675Z,18.66
2019-03-28T05:06:08.705Z,18.69
2019-03-28T05:07:08.736Z,18.7
2019-03-28T05:08:08.701Z,18.72
2019-03-28T05:09:08.763Z,18.74
2019-03-28T05:10:08.785Z,18.76
2019-03-28T05:11:08.772Z,18.78
2019-03-28T05:12:08.769Z,18.8
2019-03-28T05:13:08.509Z,18.82
2019-03-28T05:14:08.570Z,18.84
2019-03-28T05:15:08.691Z,18.86
2019-03-28T05:16:08.611Z,18.87
2019-03-28T05:17:08.606Z,18.89
2019-03-28T05:18:08.572Z,18.9
2019-03-28T05:19:08.615Z,18.92
2019-03-28T05:20:08.365Z,18.95
2019-03-28T05:21:08.790Z,18.96
2019-03-28T05:22:08.744Z,18.98
2019-03-28T05:23:08.691Z,18.99
2019-03-28T05:24:08.437Z,19
2019-03-28T05:25:08.723Z,19.01
2019-03-28T05:26:08.850Z,19.03
2019-03-28T05:27:08.716Z,19.05
2019-03-28T05:28:08.742Z,19.06
2019-03-28T05:29:08.558Z,19.07
2019-03-28T05:30:08.555Z,19.09
2019-03-28T05:31:08.573Z,19.11
2019-03-28T05:32:08.577Z,19.12
2019-03-28T05:33:08.614Z,19.13
2019-03-28T05:34:08.708Z,19.15
2019-03-28T05:35:08.751Z,19.16
2019-03-28T05:36:08.686Z,19.17
2019-03-28T05:37:08.800Z,19.18
2019-03-28T05:38:08.681Z,19.19
2019-03-28T05:39:08.832Z,19.21
2019-03-28T05:40:08.707Z,19.22
2019-03-28T05:41:08.802Z,19.23
2019-03-28T05:42:08.770Z,19.24
2019-03-28T05:43:08.869Z,19.25
2019-03-28T05:44:08.716Z,19.26
2019-03-28T05:45:08.494Z,19.27
2019-03-28T05:46:08.505Z,19.29
2019-03-28T05:47:08.554Z,19.29
2019-03-28T05:48:08.501Z,19.31
2019-03-28T05:49:08.273Z,19.31
2019-03-28T05:50:08.575Z,19.33
2019-03-28T05:51:08.504Z,19.33
2019-03-28T05:52:11.463Z,19.35
2019-03-28T05:53:08.622Z,19.36
2019-03-28T05:54:08.617Z,19.37
2019-03-28T05:55:08.667Z,19.36
2019-03-28T05:56:08.649Z,19.38
2019-03-28T05:57:08.833Z,19.39
2019-03-28T05:58:09.651Z,19.4
2019-03-28T05:59:10.954Z,19.4
2019-03-28T06:00:08.739Z,19.41
2019-03-28T06:01:08.525Z,19.4
2019-03-28T06:02:08.580Z,19.42
2019-03-28T06:03:08.567Z,19.43
2019-03-28T06:04:08.580Z,19.43
2019-03-28T06:05:08.600Z,19.43
2019-03-28T06:06:08.610Z,19.45
2019-03-28T06:07:08.928Z,19.45
2019-03-28T06:08:08.608Z,19.45
2019-03-28T06:09:08.681Z,19.45
2019-03-28T06:10:08.704Z,19.46
2019-03-28T06:11:08.690Z,19.47
2019-03-28T06:12:08.705Z,19.47
2019-03-28T06:13:08.743Z,19.47
2019-03-28T06:14:08.748Z,19.47
2019-03-28T06:15:08.752Z,19.48
2019-03-28T06:16:08.739Z,19.47
2019-03-28T06:17:08.766Z,19.48
2019-03-28T06:18:08.451Z,19.49
2019-03-28T06:19:08.733Z,19.48
2019-03-28T06:20:08.689Z,19.49
2019-03-28T06:21:08.555Z,19.49
2019-03-28T06:22:08.577Z,19.48
2019-03-28T06:23:08.562Z,19.49
2019-03-28T06:24:08.598Z,19.49
2019-03-28T06:25:08.606Z,19.49
2019-03-28T06:26:08.621Z,19.48
2019-03-28T06:27:08.593Z,19.5
2019-03-28T06:28:08.650Z,19.5
2019-03-28T06:29:08.826Z,19.5
2019-03-28T06:30:08.721Z,19.5
2019-03-28T06:31:08.689Z,19.5
2019-03-28T06:32:08.877Z,19.51
2019-03-28T06:33:08.751Z,19.51
2019-03-28T06:34:08.629Z,19.51
2019-03-28T06:35:08.547Z,19.51
2019-03-28T06:36:08.703Z,19.5
2019-03-28T06:37:08.556Z,19.51
2019-03-28T06:38:08.573Z,19.5
2019-03-28T06:39:08.626Z,19.51
2019-03-28T06:40:08.705Z,19.5
2019-03-28T06:41:08.641Z,19.51
2019-03-28T06:42:08.645Z,19.5
2019-03-28T06:43:08.617Z,19.5
2019-03-28T06:44:08.664Z,19.51
2019-03-28T06:45:08.687Z,19.5
2019-03-28T06:46:08.823Z,19.5
2019-03-28T06:47:08.786Z,19.5
2019-03-28T06:48:08.732Z,19.5
2019-03-28T06:49:08.749Z,19.51
2019-03-28T06:50:09.561Z,19.5
2019-03-28T06:51:08.501Z,19.51
2019-03-28T06:52:08.492Z,19.5
2019-03-28T06:53:08.608Z,19.51
2019-03-28T06:54:08.549Z,19.51
2019-03-28T06:55:08.614Z,19.51
2019-03-28T06:56:08.544Z,19.5
2019-03-28T06:57:08.621Z,19.51
2019-03-28T06:58:08.730Z,19.5
2019-03-28T06:59:08.653Z,19.5
2019-03-28T07:00:08.576Z,19.5
2019-03-28T07:01:08.325Z,19.49
2019-03-28T07:02:08.728Z,19.5
2019-03-28T07:03:08.610Z,19.5
2019-03-28T07:04:08.675Z,19.49
2019-03-28T07:05:08.671Z,19.5
2019-03-28T07:06:08.674Z,19.49
2019-03-28T07:07:08.489Z,19.5
2019-03-28T07:08:08.501Z,19.49
2019-03-28T07:09:08.549Z,19.5
2019-03-28T07:10:08.560Z,19.5
2019-03-28T07:11:08.531Z,19.49
2019-03-28T07:12:08.574Z,19.49
2019-03-28T07:13:08.584Z,19.49
2019-03-28T07:14:08.573Z,19.48
2019-03-28T07:15:08.704Z,19.49
2019-03-28T07:16:08.595Z,19.49
2019-03-28T07:17:08.706Z,19.49
2019-03-28T07:18:08.640Z,19.49
2019-03-28T07:19:08.683Z,19.48
2019-03-28T07:20:09.162Z,19.48
2019-03-28T07:21:08.688Z,19.48
2019-03-28T07:22:08.701Z,19.49
2019-03-28T07:23:09.520Z,19.48
2019-03-28T07:24:08.839Z,19.49
2019-03-28T07:25:08.459Z,19.48
2019-03-28T07:26:08.500Z,19.48
2019-03-28T07:27:08.548Z,19.49
2019-03-28T07:28:09.627Z,19.48
2019-03-28T07:29:08.508Z,19.48
2019-03-28T07:30:08.519Z,19.48
2019-03-28T07:31:08.525Z,19.48
2019-03-28T07:32:08.578Z,19.48
2019-03-28T07:33:08.674Z,19.49
2019-03-28T07:34:08.651Z,19.49
2019-03-28T07:35:08.324Z,19.49
2019-03-28T07:36:08.977Z,19.49
2019-03-28T07:37:08.617Z,19.48
2019-03-28T07:38:08.655Z,19.48
2019-03-28T07:39:08.662Z,19.48
2019-03-28T07:40:08.808Z,19.48
2019-03-28T07:41:08.697Z,19.48
2019-03-28T07:42:08.690Z,19.48
2019-03-28T07:43:08.577Z,19.48
2019-03-28T07:44:08.494Z,19.48
2019-03-28T07:45:08.517Z,19.47
2019-03-28T07:46:08.642Z,19.47
2019-03-28T07:47:08.577Z,19.49
2019-03-28T07:48:08.578Z,19.48
2019-03-28T07:49:08.583Z,19.49
2019-03-28T07:50:08.594Z,19.47
2019-03-28T07:51:08.623Z,19.48
2019-03-28T07:52:08.596Z,19.49
2019-03-28T07:53:08.609Z,19.48
2019-03-28T07:54:08.655Z,19.49
2019-03-28T07:55:08.615Z,19.49
2019-03-28T07:56:08.676Z,19.49
2019-03-28T07:57:08.658Z,19.48
2019-03-28T07:58:09.249Z,19.48
2019-03-28T07:59:08.719Z,19.49
2019-03-28T08:00:08.726Z,19.49
2019-03-28T08:01:08.466Z,19.49
2019-03-28T08:02:08.466Z,19.49
2019-03-28T08:03:08.230Z,19.48
2019-03-28T08:04:08.495Z,19.48
2019-03-28T08:05:08.547Z,19.49
2019-03-28T08:06:08.587Z,19.49
2019-03-28T08:07:08.149Z,19.5
2019-03-28T08:08:08.226Z,19.5
2019-03-28T08:09:08.182Z,19.49
2019-03-28T08:10:08.244Z,19.49
2019-03-28T08:11:08.632Z,19.49
2019-03-28T08:12:21.667Z,19.5
2019-03-28T08:13:08.237Z,19.5
2019-03-28T08:14:08.287Z,19.5
2019-03-28T08:15:08.330Z,19.5
2019-03-28T08:16:08.284Z,19.5
2019-03-28T08:17:08.285Z,19.5
2019-03-28T08:18:08.233Z,19.5
2019-03-28T08:19:08.241Z,19.5
2019-03-28T08:20:08.208Z,19.51
2019-03-28T08:21:08.132Z,19.51
2019-03-28T08:22:08.166Z,19.51
2019-03-28T08:23:08.163Z,19.51
2019-03-28T08:24:08.181Z,19.51
2019-03-28T08:25:11.329Z,19.51
2019-03-28T08:26:08.201Z,19.51
2019-03-28T08:27:08.196Z,19.51
2019-03-28T08:28:08.449Z,19.52
2019-03-28T08:29:08.355Z,19.52
2019-03-28T08:30:17.895Z,19.51
2019-03-28T08:31:08.277Z,19.51
2019-03-28T08:32:08.905Z,19.51
2019-03-28T08:33:08.320Z,19.52
2019-03-28T08:34:08.318Z,19.52
2019-03-28T08:35:08.357Z,19.52
2019-03-28T08:36:08.154Z,19.52
2019-03-28T08:37:08.105Z,19.53
2019-03-28T08:38:09.863Z,19.53
2019-03-28T08:39:08.149Z,19.53
2019-03-28T08:40:08.123Z,19.53
2019-03-28T08:41:08.291Z,19.53
2019-03-28T08:42:08.464Z,19.53
2019-03-28T08:43:08.264Z,19.53
2019-03-28T08:44:08.236Z,19.54
2019-03-28T08:45:08.241Z,19.54
2019-03-28T08:46:08.826Z,19.54
2019-03-28T08:47:08.214Z,19.54
2019-03-28T08:48:08.219Z,19.54
2019-03-28T08:49:08.228Z,19.52
2019-03-28T08:50:08.253Z,19.54
2019-03-28T08:51:08.260Z,19.52
2019-03-28T08:52:11.427Z,19.55
2019-03-28T08:53:08.319Z,19.56
2019-03-28T08:54:08.203Z,19.56
2019-03-28T08:55:09.904Z,19.58
2019-03-28T08:56:08.122Z,19.57
2019-03-28T08:57:08.167Z,19.58
2019-03-28T08:58:08.155Z,19.59
2019-03-28T08:59:08.244Z,19.6
2019-03-28T09:00:08.244Z,19.61
2019-03-28T09:01:08.176Z,19.62
2019-03-28T09:02:08.190Z,19.62
2019-03-28T09:03:08.298Z,19.63
2019-03-28T09:04:08.226Z,19.63
2019-03-28T09:05:08.242Z,19.63
2019-03-28T09:06:08.259Z,19.64
2019-03-28T09:07:08.324Z,19.65
2019-03-28T09:08:08.362Z,19.64
2019-03-28T09:09:08.256Z,19.65
2019-03-28T09:10:08.360Z,19.67
2019-03-28T09:11:08.313Z,19.67
2019-03-28T09:12:08.466Z,19.68
2019-03-28T09:13:08.044Z,19.67
2019-03-28T09:14:08.052Z,19.67
2019-03-28T09:15:08.261Z,19.67
2019-03-28T09:16:08.085Z,19.67
2019-03-28T09:17:08.294Z,19.67
2019-03-28T09:18:08.119Z,19.66
2019-03-28T09:19:08.133Z,19.66
2019-03-28T09:20:08.180Z,19.65
2019-03-28T09:21:08.169Z,19.65
2019-03-28T09:22:08.146Z,19.65
2019-03-28T09:23:08.198Z,19.67
2019-03-28T09:24:08.312Z,19.67
2019-03-28T09:25:08.336Z,19.65
2019-03-28T09:26:08.240Z,19.65
2019-03-28T09:27:08.321Z,19.64
2019-03-28T09:28:08.304Z,19.64
2019-03-28T09:29:08.430Z,19.62
2019-03-28T09:30:08.450Z,19.64
2019-03-28T09:31:19.133Z,19.64
2019-03-28T09:32:08.086Z,19.67
2019-03-28T09:33:08.954Z,19.67
2019-03-28T09:34:08.109Z,19.67
2019-03-28T09:35:08.204Z,19.68
2019-03-28T09:36:08.177Z,19.68
2019-03-28T09:37:08.173Z,19.69
2019-03-28T09:38:08.261Z,19.68
2019-03-28T09:39:08.171Z,19.69
2019-03-28T09:40:08.195Z,19.68
2019-03-28T09:41:08.251Z,19.69
2019-03-28T09:42:08.292Z,19.7
2019-03-28T09:43:08.236Z,19.68
2019-03-28T09:44:08.244Z,19.69
2019-03-28T09:45:08.256Z,19.69
2019-03-28T09:46:08.376Z,19.68
2019-03-28T09:47:08.418Z,19.68
2019-03-28T09:48:11.392Z,19.68
2019-03-28T09:49:08.059Z,19.67
2019-03-28T09:50:08.137Z,19.67
2019-03-28T09:51:08.041Z,19.68
2019-03-28T09:52:08.067Z,19.67
2019-03-28T09:53:08.079Z,19.67
2019-03-28T09:54:08.169Z,19.68
2019-03-28T09:55:08.112Z,19.67
2019-03-28T09:56:08.129Z,19.68
2019-03-28T09:57:08.141Z,19.67
2019-03-28T09:58:08.142Z,19.67
2019-03-28T09:59:08.156Z,19.68
2019-03-28T10:00:08.166Z,19.67
2019-03-28T10:01:08.234Z,19.67
2019-03-28T10:02:08.222Z,19.68
2019-03-28T10:03:08.283Z,19.67
2019-03-28T10:04:08.234Z,19.67
2019-03-28T10:05:08.241Z,19.67
2019-03-28T10:06:08.254Z,19.67
2019-03-28T10:07:08.347Z,19.68
2019-03-28T10:08:08.054Z,19.68
2019-03-28T10:09:08.384Z,19.67
2019-03-28T10:10:09.236Z,19.68
2019-03-28T10:11:08.092Z,19.68
2019-03-28T10:12:08.103Z,19.68
2019-03-28T10:13:08.158Z,19.68
2019-03-28T10:14:08.477Z,19.69
2019-03-28T10:15:08.148Z,19.69
2019-03-28T10:16:09.483Z,19.69
2019-03-28T10:17:08.174Z,19.69
2019-03-28T10:18:08.195Z,19.69
2019-03-28T10:19:08.257Z,19.7
2019-03-28T10:20:08.948Z,19.7
2019-03-28T10:21:08.242Z,19.72
2019-03-28T10:22:08.298Z,19.72
2019-03-28T10:23:08.261Z,19.73
2019-03-28T10:24:08.327Z,19.74
2019-03-28T10:25:08.290Z,19.76
2019-03-28T10:26:08.345Z,19.77
2019-03-28T10:27:08.032Z,19.78
2019-03-28T10:28:08.042Z,19.79
2019-03-28T10:29:08.110Z,19.8
2019-03-28T10:30:08.125Z,19.79
2019-03-28T10:31:16.066Z,19.81
2019-03-28T10:32:08.096Z,19.82
2019-03-28T10:33:08.121Z,19.84
2019-03-28T10:34:08.096Z,19.84
2019-03-28T10:35:08.105Z,19.84
2019-03-28T10:36:08.137Z,19.86
2019-03-28T10:37:08.403Z,19.85
2019-03-28T10:38:08.187Z,19.86
2019-03-28T10:39:08.297Z,19.88
2019-03-28T10:40:08.188Z,19.88
2019-03-28T10:41:08.195Z,19.9
2019-03-28T10:42:08.228Z,19.9
2019-03-28T10:43:08.236Z,19.91
2019-03-28T10:44:08.389Z,19.92
2019-03-28T10:45:08.337Z,19.92
2019-03-28T10:46:08.025Z,19.93
2019-03-28T10:47:08.143Z,19.93
2019-03-28T10:48:08.112Z,19.94
2019-03-28T10:49:08.143Z,19.94
2019-03-28T10:50:08.195Z,19.95
2019-03-28T10:51:08.151Z,19.95
2019-03-28T10:52:08.116Z,19.96
2019-03-28T10:53:08.258Z,19.97
2019-03-28T10:54:19.184Z,19.99
2019-03-28T10:55:08.187Z,20
2019-03-28T10:56:20.755Z,19.99
2019-03-28T10:57:13.774Z,20
2019-03-28T10:58:18.052Z,19.99
2019-03-28T10:59:08.217Z,20.01
2019-03-28T11:00:08.320Z,20
2019-03-28T11:01:08.344Z,20.01
2019-03-28T11:02:08.272Z,20.03
2019-03-28T11:03:08.290Z,20.02
2019-03-28T11:04:08.015Z,20.03
2019-03-28T11:05:08.034Z,20.04
2019-03-28T11:06:08.201Z,20.05
2019-03-28T11:07:08.052Z,20.04
2019-03-28T11:08:08.102Z,20.04
2019-03-28T11:09:08.579Z,20.05
2019-03-28T11:10:08.076Z,20.05
2019-03-28T11:11:08.107Z,20.05
2019-03-28T11:12:08.100Z,20.05
2019-03-28T11:13:09.626Z,20.05
2019-03-28T11:14:08.159Z,20.06
2019-03-28T11:15:08.253Z,20.08
2019-03-28T11:16:08.292Z,20.08
2019-03-28T11:17:08.177Z,20.09
2019-03-28T11:18:08.101Z,20.08
2019-03-28T11:19:08.268Z,20.09
2019-03-28T11:20:08.403Z,20.09
2019-03-28T11:21:08.284Z,20.09
2019-03-28T11:22:08.239Z,20.09
2019-03-28T11:23:08.049Z,20.1
2019-03-28T11:24:08.201Z,20.09
2019-03-28T11:25:08.248Z,20.1
2019-03-28T11:26:08.073Z,20.1
2019-03-28T11:27:08.181Z,20.1
2019-03-28T11:28:08.234Z,20.1
2019-03-28T11:29:08.241Z,20.09
2019-03-28T11:30:08.136Z,20.11
2019-03-28T11:31:08.147Z,20.11
2019-03-28T11:32:08.156Z,20.1
2019-03-28T11:33:08.196Z,20.11
2019-03-28T11:34:08.302Z,20.1
2019-03-28T11:35:08.286Z,20.1
2019-03-28T11:36:08.212Z,20.11
2019-03-28T11:37:11.398Z,20.12
2019-03-28T11:38:09.660Z,20.12
2019-03-28T11:39:08.305Z,20.12
2019-03-28T11:40:09.225Z,20.12
2019-03-28T11:41:08.688Z,20.11
2019-03-28T11:42:07.993Z,20.11
2019-03-28T11:43:08.030Z,20.1
2019-03-28T11:44:08.047Z,20.1
2019-03-28T11:45:09.366Z,20.09
2019-03-28T11:46:08.070Z,20.09
2019-03-28T11:47:08.072Z,20.09
2019-03-28T11:48:08.096Z,20.09
2019-03-28T11:49:08.168Z,20.09
2019-03-28T11:50:08.226Z,20.09
2019-03-28T11:51:08.123Z,20.08
2019-03-28T11:52:08.170Z,20.08
2019-03-28T11:53:08.143Z,20.07
2019-03-28T11:54:08.204Z,20.05
2019-03-28T11:55:08.196Z,20.04
2019-03-28T11:56:08.246Z,20.04
2019-03-28T11:57:08.183Z,20.03
2019-03-28T11:58:08.239Z,20.03
2019-03-28T11:59:08.112Z,20.02
2019-03-28T12:00:08.046Z,20.02
2019-03-28T12:01:08.059Z,20.02
2019-03-28T12:02:19.509Z,20.01
2019-03-28T12:03:08.071Z,20.01
2019-03-28T12:04:08.509Z,20
2019-03-28T12:05:08.119Z,20
2019-03-28T12:06:08.243Z,20
2019-03-28T12:07:08.169Z,20
2019-03-28T12:08:08.125Z,19.99
2019-03-28T12:09:08.184Z,19.99
2019-03-28T12:10:08.168Z,19.99
2019-03-28T12:11:08.155Z,19.97
2019-03-28T12:12:08.165Z,19.97
2019-03-28T12:13:08.202Z,19.96
2019-03-28T12:14:08.242Z,19.97
2019-03-28T12:15:08.303Z,19.96
2019-03-28T12:16:08.234Z,19.95
2019-03-28T12:17:08.310Z,19.96
2019-03-28T12:18:08.209Z,19.95
2019-03-28T12:19:07.980Z,19.94
2019-03-28T12:20:07.994Z,19.94
2019-03-28T12:21:08.002Z,19.94
2019-03-28T12:22:09.164Z,19.94
2019-03-28T12:23:08.144Z,19.93
2019-03-28T12:24:08.149Z,19.93
2019-03-28T12:25:08.083Z,19.92
2019-03-28T12:26:08.082Z,19.93
2019-03-28T12:27:08.111Z,19.92
2019-03-28T12:28:08.096Z,19.92
2019-03-28T12:29:08.113Z,19.92
2019-03-28T12:30:08.211Z,19.91
2019-03-28T12:31:08.327Z,19.91
2019-03-28T12:32:13.603Z,19.9
2019-03-28T12:33:08.339Z,19.91
2019-03-28T12:34:08.248Z,19.91
2019-03-28T12:35:08.398Z,19.9
2019-03-28T12:36:08.041Z,19.9
2019-03-28T12:37:07.999Z,19.9
2019-03-28T12:38:08.102Z,19.89
2019-03-28T12:39:08.116Z,19.9
2019-03-28T12:40:08.109Z,19.89
2019-03-28T12:41:08.189Z,19.89
2019-03-28T12:42:08.115Z,19.88
2019-03-28T12:43:08.171Z,19.89
2019-03-28T12:44:08.122Z,19.88
2019-03-28T12:45:08.217Z,19.88
2019-03-28T12:46:08.193Z,19.88
2019-03-28T12:47:08.149Z,19.88
2019-03-28T12:48:08.232Z,19.88
2019-03-28T12:49:08.231Z,19.88
2019-03-28T12:50:07.943Z,19.88
2019-03-28T12:51:08.215Z,19.88
2019-03-28T12:52:08.317Z,19.87
2019-03-28T12:53:08.280Z,19.86
2019-03-28T12:54:07.927Z,19.89
2019-03-28T12:55:08.028Z,19.89
2019-03-28T12:56:07.984Z,19.89